sensor_id;sensor_type;location;lat;lon;timestamp;temperature;humidity
39951;DHT22;25629;51.444;-2.606;2023-03-01T00:02:07;7.30;1.00
39951;DHT22;25629;51.444;-2.606;2023-03-01T00:04:32;7.30;99.90
39951;DHT22;25629;51.444;-2.606;2023-03-01T00:06:59;7.20;1.00
39951;DHT22;25629;51.444;-2.606;2023-03-01T00:09:24;7.20;1.00
39951;DHT22;25629;51.444;-2.606;2023-03-01T00:11:50;7.20;99.90
39951;DHT22;25629;51.444;-2.606;2023-03-01T00:14:16;7.20;13.90
39951;DHT22;25629;51.444;-2.606;2023-03-01T00:16:44;7.20;1.00
39951;DHT22;25629;51.444;-2.606;2023-03-01T00:19:14;7.10;99.90
39951;DHT22;25629;51.444;-2.606;2023-03-01T00:21:40;7.10;99.90
39951;DHT22;25629;51.444;-2.606;2023-03-01T00:24:06;7.10;99.90
39951;DHT22;25629;51.444;-2.606;2023-03-01T00:26:32;7.10;99.90
39951;DHT22;25629;51.444;-2.606;2023-03-01T00:28:58;7.20;99.90
39951;DHT22;25629;51.444;-2.606;2023-03-01T00:31:29;7.20;49.00
39951;DHT22;25629;51.444;-2.606;2023-03-01T00:33:57;7.20;27.40
39951;DHT22;25629;51.444;-2.606;2023-03-01T00:36:28;7.20;38.90
39951;DHT22;25629;51.444;-2.606;2023-03-01T00:38:55;7.10;51.40
39951;DHT22;25629;51.444;-2.606;2023-03-01T00:41:21;7.10;99.90
39951;DHT22;25629;51.444;-2.606;2023-03-01T00:43:49;7.10;96.80
39951;DHT22;25629;51.444;-2.606;2023-03-01T00:46:20;7.20;99.90
39951;DHT22;25629;51.444;-2.606;2023-03-01T00:48:46;7.10;99.90
39951;DHT22;25629;51.444;-2.606;2023-03-01T00:51:14;7.10;99.90
39951;DHT22;25629;51.444;-2.606;2023-03-01T00:53:40;7.00;99.90
39951;DHT22;25629;51.444;-2.606;2023-03-01T00:56:08;7.10;99.90
39951;DHT22;25629;51.444;-2.606;2023-03-01T00:58:34;7.10;99.90
39951;DHT22;25629;51.444;-2.606;2023-03-01T01:01:00;7.10;99.90
39951;DHT22;25629;51.444;-2.606;2023-03-01T01:03:26;7.10;99.90
39951;DHT22;25629;51.444;-2.606;2023-03-01T01:05:53;7.10;99.90
39951;DHT22;25629;51.444;-2.606;2023-03-01T01:08:20;7.00;99.90
39951;DHT22;25629;51.444;-2.606;2023-03-01T01:10:46;7.00;99.90
39951;DHT22;25629;51.444;-2.606;2023-03-01T01:13:12;7.00;99.90
39951;DHT22;25629;51.444;-2.606;2023-03-01T01:15:39;7.00;99.90
39951;DHT22;25629;51.444;-2.606;2023-03-01T01:18:05;6.90;99.90
39951;DHT22;25629;51.444;-2.606;2023-03-01T01:20:31;7.00;99.90
39951;DHT22;25629;51.444;-2.606;2023-03-01T01:22:57;7.00;99.90
39951;DHT22;25629;51.444;-2.606;2023-03-01T01:25:23;7.10;76.50
39951;DHT22;25629;51.444;-2.606;2023-03-01T01:27:50;6.90;67.50
39951;DHT22;25629;51.444;-2.606;2023-03-01T01:30:16;6.90;1.00
39951;DHT22;25629;51.444;-2.606;2023-03-01T01:32:42;6.90;1.00
39951;DHT22;25629;51.444;-2.606;2023-03-01T01:35:08;7.00;1.00
39951;DHT22;25629;51.444;-2.606;2023-03-01T01:37:33;7.00;1.00
39951;DHT22;25629;51.444;-2.606;2023-03-01T01:40:00;7.00;1.00
39951;DHT22;25629;51.444;-2.606;2023-03-01T01:42:27;7.10;1.00
39951;DHT22;25629;51.444;-2.606;2023-03-01T01:45:28;7.00;1.00
39951;DHT22;25629;51.444;-2.606;2023-03-01T01:47:59;7.00;1.00
39951;DHT22;25629;51.444;-2.606;2023-03-01T01:50:25;7.00;1.00
39951;DHT22;25629;51.444;-2.606;2023-03-01T01:52:51;7.10;1.00
39951;DHT22;25629;51.444;-2.606;2023-03-01T01:55:21;7.00;1.00
39951;DHT22;25629;51.444;-2.606;2023-03-01T01:57:52;6.90;68.80
39951;DHT22;25629;51.444;-2.606;2023-03-01T02:00:24;6.90;99.90
39951;DHT22;25629;51.444;-2.606;2023-03-01T02:02:59;6.90;99.90
39951;DHT22;25629;51.444;-2.606;2023-03-01T02:07:59;6.90;99.90
39951;DHT22;25629;51.444;-2.606;2023-03-01T02:10:25;6.90;99.90
39951;DHT22;25629;51.444;-2.606;2023-03-01T02:12:53;6.70;1.00
39951;DHT22;25629;51.444;-2.606;2023-03-01T02:15:19;6.80;1.00
39951;DHT22;25629;51.444;-2.606;2023-03-01T02:17:45;6.80;40.60
39951;DHT22;25629;51.444;-2.606;2023-03-01T02:23:11;6.80;99.90
39951;DHT22;25629;51.444;-2.606;2023-03-01T02:28:53;6.90;1.00
39951;DHT22;25629;51.444;-2.606;2023-03-01T02:31:20;6.90;99.90
39951;DHT22;25629;51.444;-2.606;2023-03-01T02:34:06;6.80;99.90
39951;DHT22;25629;51.444;-2.606;2023-03-01T02:36:40;6.80;99.90
39951;DHT22;25629;51.444;-2.606;2023-03-01T02:39:10;6.80;99.90
39951;DHT22;25629;51.444;-2.606;2023-03-01T02:41:42;6.80;1.00
39951;DHT22;25629;51.444;-2.606;2023-03-01T02:44:08;6.70;99.90
39951;DHT22;25629;51.444;-2.606;2023-03-01T02:46:42;6.60;99.90
39951;DHT22;25629;51.444;-2.606;2023-03-01T02:49:29;6.50;1.00
39951;DHT22;25629;51.444;-2.606;2023-03-01T02:55:08;6.40;1.00
39951;DHT22;25629;51.444;-2.606;2023-03-01T02:57:37;6.40;1.00
39951;DHT22;25629;51.444;-2.606;2023-03-01T03:00:09;6.40;1.00
39951;DHT22;25629;51.444;-2.606;2023-03-01T03:02:36;6.50;1.00
39951;DHT22;25629;51.444;-2.606;2023-03-01T03:05:23;6.50;1.00
39951;DHT22;25629;51.444;-2.606;2023-03-01T03:07:49;6.50;1.00
39951;DHT22;25629;51.444;-2.606;2023-03-01T03:10:21;6.40;1.00
39951;DHT22;25629;51.444;-2.606;2023-03-01T03:12:55;6.40;99.90
39951;DHT22;25629;51.444;-2.606;2023-03-01T03:15:22;6.50;1.00
39951;DHT22;25629;51.444;-2.606;2023-03-01T03:17:49;6.50;99.90
39951;DHT22;25629;51.444;-2.606;2023-03-01T03:20:17;6.50;99.90
39951;DHT22;25629;51.444;-2.606;2023-03-01T03:22:48;6.50;99.90
39951;DHT22;25629;51.444;-2.606;2023-03-01T03:25:15;6.50;99.90
39951;DHT22;25629;51.444;-2.606;2023-03-01T03:27:42;6.50;99.90
39951;DHT22;25629;51.444;-2.606;2023-03-01T03:30:12;6.60;1.00
39951;DHT22;25629;51.444;-2.606;2023-03-01T03:32:43;6.60;99.90
39951;DHT22;25629;51.444;-2.606;2023-03-01T03:35:22;6.60;99.90
39951;DHT22;25629;51.444;-2.606;2023-03-01T03:37:48;6.60;99.90
39951;DHT22;25629;51.444;-2.606;2023-03-01T03:40:39;6.60;99.90
39951;DHT22;25629;51.444;-2.606;2023-03-01T03:43:12;6.60;99.90
39951;DHT22;25629;51.444;-2.606;2023-03-01T03:45:38;6.50;99.90
39951;DHT22;25629;51.444;-2.606;2023-03-01T03:48:04;6.50;99.90
39951;DHT22;25629;51.444;-2.606;2023-03-01T03:50:31;6.50;1.00
39951;DHT22;25629;51.444;-2.606;2023-03-01T03:52:56;6.60;99.90
39951;DHT22;25629;51.444;-2.606;2023-03-01T03:55:22;6.50;1.00
39951;DHT22;25629;51.444;-2.606;2023-03-01T03:57:48;6.50;99.90
39951;DHT22;25629;51.444;-2.606;2023-03-01T04:00:21;6.60;99.90
39951;DHT22;25629;51.444;-2.606;2023-03-01T04:02:47;6.60;1.00
39951;DHT22;25629;51.444;-2.606;2023-03-01T04:05:15;6.60;99.90
39951;DHT22;25629;51.444;-2.606;2023-03-01T04:07:41;6.50;99.90
39951;DHT22;25629;51.444;-2.606;2023-03-01T04:10:10;6.50;91.30
39951;DHT22;25629;51.444;-2.606;2023-03-01T04:12:36;6.50;55.30
39951;DHT22;25629;51.444;-2.606;2023-03-01T04:15:03;6.50;1.00
39951;DHT22;25629;51.444;-2.606;2023-03-01T04:17:39;6.50;99.90
39951;DHT22;25629;51.444;-2.606;2023-03-01T04:20:05;6.50;8.50
39951;DHT22;25629;51.444;-2.606;2023-03-01T04:22:32;6.50;1.00
39951;DHT22;25629;51.444;-2.606;2023-03-01T04:24:58;6.60;99.90
39951;DHT22;25629;51.444;-2.606;2023-03-01T04:27:34;6.60;1.00
39951;DHT22;25629;51.444;-2.606;2023-03-01T04:30:01;6.60;1.00
39951;DHT22;25629;51.444;-2.606;2023-03-01T04:32:27;6.60;1.00
39951;DHT22;25629;51.444;-2.606;2023-03-01T04:34:53;6.60;99.90
39951;DHT22;25629;51.444;-2.606;2023-03-01T04:37:18;6.50;99.90
39951;DHT22;25629;51.444;-2.606;2023-03-01T04:39:44;6.60;1.00
39951;DHT22;25629;51.444;-2.606;2023-03-01T04:42:16;6.60;99.90
39951;DHT22;25629;51.444;-2.606;2023-03-01T04:44:43;6.60;99.90
39951;DHT22;25629;51.444;-2.606;2023-03-01T04:47:09;6.60;1.00
39951;DHT22;25629;51.444;-2.606;2023-03-01T04:49:34;6.60;99.90
39951;DHT22;25629;51.444;-2.606;2023-03-01T04:52:00;6.50;99.90
39951;DHT22;25629;51.444;-2.606;2023-03-01T04:54:30;6.50;1.00
39951;DHT22;25629;51.444;-2.606;2023-03-01T04:56:55;6.50;99.90
39951;DHT22;25629;51.444;-2.606;2023-03-01T04:59:21;6.50;99.90
39951;DHT22;25629;51.444;-2.606;2023-03-01T05:01:51;6.50;99.90
39951;DHT22;25629;51.444;-2.606;2023-03-01T05:04:17;6.50;1.00
39951;DHT22;25629;51.444;-2.606;2023-03-01T05:06:43;6.50;99.90
39951;DHT22;25629;51.444;-2.606;2023-03-01T05:09:09;6.40;19.10
39951;DHT22;25629;51.444;-2.606;2023-03-01T05:11:37;6.40;99.90
39951;DHT22;25629;51.444;-2.606;2023-03-01T05:14:03;6.40;99.90
39951;DHT22;25629;51.444;-2.606;2023-03-01T05:16:28;6.50;99.90
39951;DHT22;25629;51.444;-2.606;2023-03-01T05:18:56;6.50;1.00
39951;DHT22;25629;51.444;-2.606;2023-03-01T05:21:22;6.40;99.90
39951;DHT22;25629;51.444;-2.606;2023-03-01T05:23:48;6.40;99.90
39951;DHT22;25629;51.444;-2.606;2023-03-01T05:26:15;6.50;99.90
39951;DHT22;25629;51.444;-2.606;2023-03-01T05:28:41;6.50;99.90
39951;DHT22;25629;51.444;-2.606;2023-03-01T05:31:07;6.50;99.90
39951;DHT22;25629;51.444;-2.606;2023-03-01T05:33:38;6.50;99.90
39951;DHT22;25629;51.444;-2.606;2023-03-01T05:36:06;6.50;99.90
39951;DHT22;25629;51.444;-2.606;2023-03-01T05:38:33;6.50;99.90
39951;DHT22;25629;51.444;-2.606;2023-03-01T05:40:59;6.50;99.90
39951;DHT22;25629;51.444;-2.606;2023-03-01T05:43:25;6.50;99.90
39951;DHT22;25629;51.444;-2.606;2023-03-01T05:45:50;6.50;1.00
39951;DHT22;25629;51.444;-2.606;2023-03-01T05:48:16;6.50;1.00
39951;DHT22;25629;51.444;-2.606;2023-03-01T05:50:45;6.50;1.00
39951;DHT22;25629;51.444;-2.606;2023-03-01T05:53:15;6.50;1.00
39951;DHT22;25629;51.444;-2.606;2023-03-01T05:55:41;6.40;1.00
39951;DHT22;25629;51.444;-2.606;2023-03-01T05:58:11;6.40;1.00
39951;DHT22;25629;51.444;-2.606;2023-03-01T06:00:39;6.30;1.00
39951;DHT22;25629;51.444;-2.606;2023-03-01T06:03:05;6.40;1.00
39951;DHT22;25629;51.444;-2.606;2023-03-01T06:05:31;6.30;1.00
39951;DHT22;25629;51.444;-2.606;2023-03-01T06:08:01;6.30;1.00
39951;DHT22;25629;51.444;-2.606;2023-03-01T06:10:26;6.30;1.00
39951;DHT22;25629;51.444;-2.606;2023-03-01T06:12:53;6.20;1.00
39951;DHT22;25629;51.444;-2.606;2023-03-01T06:15:19;6.20;2.00
39951;DHT22;25629;51.444;-2.606;2023-03-01T06:17:45;6.10;17.00
39951;DHT22;25629;51.444;-2.606;2023-03-01T06:20:16;6.10;29.10
39951;DHT22;25629;51.444;-2.606;2023-03-01T06:22:43;6.00;45.60
39951;DHT22;25629;51.444;-2.606;2023-03-01T06:25:10;6.10;52.30
39951;DHT22;25629;51.444;-2.606;2023-03-01T06:27:36;6.10;63.60
39951;DHT22;25629;51.444;-2.606;2023-03-01T06:30:02;6.10;67.90
39951;DHT22;25629;51.444;-2.606;2023-03-01T06:32:28;6.10;73.20
39951;DHT22;25629;51.444;-2.606;2023-03-01T06:34:55;6.10;71.50
39951;DHT22;25629;51.444;-2.606;2023-03-01T06:37:21;6.20;73.90
39951;DHT22;25629;51.444;-2.606;2023-03-01T06:39:46;6.20;75.60
39951;DHT22;25629;51.444;-2.606;2023-03-01T06:42:12;6.10;78.10
39951;DHT22;25629;51.444;-2.606;2023-03-01T06:44:38;6.20;88.10
39951;DHT22;25629;51.444;-2.606;2023-03-01T06:47:04;6.10;88.40
39951;DHT22;25629;51.444;-2.606;2023-03-01T06:49:30;6.20;88.50
39951;DHT22;25629;51.444;-2.606;2023-03-01T06:51:56;6.10;89.20
39951;DHT22;25629;51.444;-2.606;2023-03-01T06:54:22;6.10;90.30
39951;DHT22;25629;51.444;-2.606;2023-03-01T06:56:48;6.10;89.70
39951;DHT22;25629;51.444;-2.606;2023-03-01T06:59:16;6.10;89.40
39951;DHT22;25629;51.444;-2.606;2023-03-01T07:01:42;6.20;86.90
39951;DHT22;25629;51.444;-2.606;2023-03-01T07:04:07;6.20;87.60
39951;DHT22;25629;51.444;-2.606;2023-03-01T07:06:33;6.20;83.40
39951;DHT22;25629;51.444;-2.606;2023-03-01T07:08:59;6.20;81.00
39951;DHT22;25629;51.444;-2.606;2023-03-01T07:11:24;6.20;77.70
39951;DHT22;25629;51.444;-2.606;2023-03-01T07:13:50;6.20;77.30
39951;DHT22;25629;51.444;-2.606;2023-03-01T07:16:16;6.20;74.40
39951;DHT22;25629;51.444;-2.606;2023-03-01T07:18:42;6.20;73.50
39951;DHT22;25629;51.444;-2.606;2023-03-01T07:21:09;6.20;73.00
39951;DHT22;25629;51.444;-2.606;2023-03-01T07:23:36;6.20;69.10
39951;DHT22;25629;51.444;-2.606;2023-03-01T07:26:02;6.30;64.60
39951;DHT22;25629;51.444;-2.606;2023-03-01T07:28:28;6.30;66.30
39951;DHT22;25629;51.444;-2.606;2023-03-01T07:30:54;6.30;57.30
39951;DHT22;25629;51.444;-2.606;2023-03-01T07:33:20;6.20;57.20
39951;DHT22;25629;51.444;-2.606;2023-03-01T07:35:46;6.20;61.00
39951;DHT22;25629;51.444;-2.606;2023-03-01T07:38:11;6.30;51.40
39951;DHT22;25629;51.444;-2.606;2023-03-01T07:40:37;6.40;45.90
39951;DHT22;25629;51.444;-2.606;2023-03-01T07:43:03;6.40;30.20
39951;DHT22;25629;51.444;-2.606;2023-03-01T07:45:29;6.40;21.20
39951;DHT22;25629;51.444;-2.606;2023-03-01T07:47:55;6.50;22.30
39951;DHT22;25629;51.444;-2.606;2023-03-01T07:50:22;6.50;2.60
39951;DHT22;25629;51.444;-2.606;2023-03-01T07:52:49;6.50;1.00
39951;DHT22;25629;51.444;-2.606;2023-03-01T07:55:16;6.50;1.00
39951;DHT22;25629;51.444;-2.606;2023-03-01T07:57:42;6.60;1.00
39951;DHT22;25629;51.444;-2.606;2023-03-01T08:00:10;6.70;1.00
39951;DHT22;25629;51.444;-2.606;2023-03-01T08:02:38;6.70;1.00
39951;DHT22;25629;51.444;-2.606;2023-03-01T08:05:05;6.70;1.00
39951;DHT22;25629;51.444;-2.606;2023-03-01T08:07:32;6.80;1.00
39951;DHT22;25629;51.444;-2.606;2023-03-01T08:09:58;6.80;1.00
39951;DHT22;25629;51.444;-2.606;2023-03-01T08:12:23;6.90;99.90
39951;DHT22;25629;51.444;-2.606;2023-03-01T08:14:49;6.90;99.90
39951;DHT22;25629;51.444;-2.606;2023-03-01T08:17:15;7.00;99.90
39951;DHT22;25629;51.444;-2.606;2023-03-01T08:19:40;7.10;1.00
39951;DHT22;25629;51.444;-2.606;2023-03-01T08:22:06;7.20;99.90
39951;DHT22;25629;51.444;-2.606;2023-03-01T08:24:32;7.30;99.90
39951;DHT22;25629;51.444;-2.606;2023-03-01T08:26:57;7.30;99.90
39951;DHT22;25629;51.444;-2.606;2023-03-01T08:29:23;7.20;99.90
39951;DHT22;25629;51.444;-2.606;2023-03-01T08:31:50;7.10;1.00
39951;DHT22;25629;51.444;-2.606;2023-03-01T08:34:16;7.00;99.90
39951;DHT22;25629;51.444;-2.606;2023-03-01T08:36:44;7.20;1.00
39951;DHT22;25629;51.444;-2.606;2023-03-01T08:39:13;7.20;1.00
39951;DHT22;25629;51.444;-2.606;2023-03-01T08:41:39;7.20;99.90
39951;DHT22;25629;51.444;-2.606;2023-03-01T08:44:06;7.20;99.90
39951;DHT22;25629;51.444;-2.606;2023-03-01T08:46:40;7.00;99.90
39951;DHT22;25629;51.444;-2.606;2023-03-01T08:49:07;7.00;99.90
39951;DHT22;25629;51.444;-2.606;2023-03-01T08:51:34;7.20;99.90
39951;DHT22;25629;51.444;-2.606;2023-03-01T08:54:06;7.10;99.90
39951;DHT22;25629;51.444;-2.606;2023-03-01T08:56:33;7.10;99.90
39951;DHT22;25629;51.444;-2.606;2023-03-01T08:58:59;7.10;99.90
39951;DHT22;25629;51.444;-2.606;2023-03-01T09:01:25;7.10;99.90
39951;DHT22;25629;51.444;-2.606;2023-03-01T09:03:51;7.30;1.00
39951;DHT22;25629;51.444;-2.606;2023-03-01T09:06:17;7.30;1.00
39951;DHT22;25629;51.444;-2.606;2023-03-01T09:08:45;7.30;99.90
39951;DHT22;25629;51.444;-2.606;2023-03-01T09:11:14;7.30;99.90
39951;DHT22;25629;51.444;-2.606;2023-03-01T09:13:41;7.30;1.00
39951;DHT22;25629;51.444;-2.606;2023-03-01T09:16:07;7.40;99.90
39951;DHT22;25629;51.444;-2.606;2023-03-01T09:18:34;7.50;99.90
39951;DHT22;25629;51.444;-2.606;2023-03-01T09:21:06;7.50;99.90
39951;DHT22;25629;51.444;-2.606;2023-03-01T09:23:35;7.50;99.90
39951;DHT22;25629;51.444;-2.606;2023-03-01T09:26:03;7.60;99.90
39951;DHT22;25629;51.444;-2.606;2023-03-01T09:28:29;7.80;1.00
39951;DHT22;25629;51.444;-2.606;2023-03-01T09:31:01;7.80;6.60
39951;DHT22;25629;51.444;-2.606;2023-03-01T09:33:28;7.60;99.90
39951;DHT22;25629;51.444;-2.606;2023-03-01T09:36:02;7.50;99.90
39951;DHT22;25629;51.444;-2.606;2023-03-01T09:38:29;7.50;1.00
39951;DHT22;25629;51.444;-2.606;2023-03-01T09:40:55;7.70;99.90
39951;DHT22;25629;51.444;-2.606;2023-03-01T09:46:12;8.10;1.00
39951;DHT22;25629;51.444;-2.606;2023-03-01T09:48:45;8.00;99.90
39951;DHT22;25629;51.444;-2.606;2023-03-01T09:51:22;8.00;99.90
39951;DHT22;25629;51.444;-2.606;2023-03-01T09:53:49;8.00;1.00
39951;DHT22;25629;51.444;-2.606;2023-03-01T09:56:39;8.00;2.70
39951;DHT22;25629;51.444;-2.606;2023-03-01T09:59:28;7.90;99.90
39951;DHT22;25629;51.444;-2.606;2023-03-01T10:02:11;7.80;99.90
39951;DHT22;25629;51.444;-2.606;2023-03-01T10:05:34;7.60;1.00
39951;DHT22;25629;51.444;-2.606;2023-03-01T10:07:56;7.50;99.90
39951;DHT22;25629;51.444;-2.606;2023-03-01T10:10:33;7.70;1.00
39951;DHT22;25629;51.444;-2.606;2023-03-01T10:13:09;7.70;1.00
39951;DHT22;25629;51.444;-2.606;2023-03-01T10:15:42;8.20;99.90
39951;DHT22;25629;51.444;-2.606;2023-03-01T10:18:19;8.70;1.00
39951;DHT22;25629;51.444;-2.606;2023-03-01T10:21:34;9.20;1.00
39951;DHT22;25629;51.444;-2.606;2023-03-01T10:23:42;9.50;99.90
39951;DHT22;25629;51.444;-2.606;2023-03-01T10:29:03;9.50;1.00
39951;DHT22;25629;51.444;-2.606;2023-03-01T10:31:50;9.40;99.90
39951;DHT22;25629;51.444;-2.606;2023-03-01T10:34:30;9.00;1.00
39951;DHT22;25629;51.444;-2.606;2023-03-01T10:37:13;8.90;99.90
39951;DHT22;25629;51.444;-2.606;2023-03-01T10:40:05;8.90;99.90
39951;DHT22;25629;51.444;-2.606;2023-03-01T10:42:38;8.70;1.00
39951;DHT22;25629;51.444;-2.606;2023-03-01T10:45:30;8.60;1.00
39951;DHT22;25629;51.444;-2.606;2023-03-01T10:50:45;8.60;1.00
39951;DHT22;25629;51.444;-2.606;2023-03-01T10:53:24;8.50;6.80
39951;DHT22;25629;51.444;-2.606;2023-03-01T10:56:07;8.20;99.90
39951;DHT22;25629;51.444;-2.606;2023-03-01T10:58:35;8.10;99.90
39951;DHT22;25629;51.444;-2.606;2023-03-01T11:01:03;8.10;99.90
39951;DHT22;25629;51.444;-2.606;2023-03-01T11:06:05;8.10;99.90
39951;DHT22;25629;51.444;-2.606;2023-03-01T11:08:45;8.20;99.90
39951;DHT22;25629;51.444;-2.606;2023-03-01T11:19:01;8.80;99.90
39951;DHT22;25629;51.444;-2.606;2023-03-01T11:21:29;9.10;1.00
39951;DHT22;25629;51.444;-2.606;2023-03-01T11:24:00;9.30;99.90
39951;DHT22;25629;51.444;-2.606;2023-03-01T11:26:27;9.30;1.00
39951;DHT22;25629;51.444;-2.606;2023-03-01T11:28:56;9.40;99.90
39951;DHT22;25629;51.444;-2.606;2023-03-01T11:31:24;9.20;99.90
39951;DHT22;25629;51.444;-2.606;2023-03-01T11:34:03;9.10;1.00
39951;DHT22;25629;51.444;-2.606;2023-03-01T11:36:47;9.00;99.90
39951;DHT22;25629;51.444;-2.606;2023-03-01T11:39:22;9.10;29.00
39951;DHT22;25629;51.444;-2.606;2023-03-01T11:42:02;9.10;1.00
39951;DHT22;25629;51.444;-2.606;2023-03-01T11:44:33;9.20;1.00
39951;DHT22;25629;51.444;-2.606;2023-03-01T11:47:29;9.20;99.90
39951;DHT22;25629;51.444;-2.606;2023-03-01T11:53:00;9.40;99.90
39951;DHT22;25629;51.444;-2.606;2023-03-01T12:23:30;9.90;1.00
39951;DHT22;25629;51.444;-2.606;2023-03-01T12:39:42;9.40;1.00
39951;DHT22;25629;51.444;-2.606;2023-03-01T12:51:03;9.80;1.00
39951;DHT22;25629;51.444;-2.606;2023-03-01T12:53:35;9.80;1.00
39951;DHT22;25629;51.444;-2.606;2023-03-01T12:56:06;9.80;1.00
39951;DHT22;25629;51.444;-2.606;2023-03-01T12:58:42;9.70;1.00
39951;DHT22;25629;51.444;-2.606;2023-03-01T13:04:21;9.10;1.00
39951;DHT22;25629;51.444;-2.606;2023-03-01T13:12:51;8.90;81.40
39951;DHT22;25629;51.444;-2.606;2023-03-01T13:17:53;8.70;99.90
39951;DHT22;25629;51.444;-2.606;2023-03-01T13:20:31;8.80;99.90
39951;DHT22;25629;51.444;-2.606;2023-03-01T13:23:23;8.70;99.90
39951;DHT22;25629;51.444;-2.606;2023-03-01T13:26:13;8.70;99.90
39951;DHT22;25629;51.444;-2.606;2023-03-01T13:28:50;8.70;99.90
39951;DHT22;25629;51.444;-2.606;2023-03-01T13:33:46;8.80;99.90
39951;DHT22;25629;51.444;-2.606;2023-03-01T13:46:48;9.50;3.70
39951;DHT22;25629;51.444;-2.606;2023-03-01T13:49:18;9.70;1.00
39951;DHT22;25629;51.444;-2.606;2023-03-01T13:51:49;9.80;1.00
39951;DHT22;25629;51.444;-2.606;2023-03-01T13:54:18;9.60;1.00
39951;DHT22;25629;51.444;-2.606;2023-03-01T13:56:48;9.50;1.00
39951;DHT22;25629;51.444;-2.606;2023-03-01T13:59:23;9.50;1.00
39951;DHT22;25629;51.444;-2.606;2023-03-01T14:02:00;9.40;1.00
39951;DHT22;25629;51.444;-2.606;2023-03-01T14:04:31;9.30;99.90
39951;DHT22;25629;51.444;-2.606;2023-03-01T14:07:21;9.20;99.90
39951;DHT22;25629;51.444;-2.606;2023-03-01T14:09:51;9.00;99.90
39951;DHT22;25629;51.444;-2.606;2023-03-01T14:18:02;8.90;99.90
39951;DHT22;25629;51.444;-2.606;2023-03-01T14:20:32;9.00;1.00
39951;DHT22;25629;51.444;-2.606;2023-03-01T14:23:07;9.00;99.90
39951;DHT22;25629;51.444;-2.606;2023-03-01T14:25:36;9.00;99.90
39951;DHT22;25629;51.444;-2.606;2023-03-01T14:33:04;9.30;99.90
39951;DHT22;25629;51.444;-2.606;2023-03-01T14:35:34;9.40;99.90
39951;DHT22;25629;51.444;-2.606;2023-03-01T14:38:00;9.40;99.90
39951;DHT22;25629;51.444;-2.606;2023-03-01T14:40:35;9.40;91.70
39951;DHT22;25629;51.444;-2.606;2023-03-01T14:43:08;9.60;55.80
39951;DHT22;25629;51.444;-2.606;2023-03-01T14:45:35;9.70;80.50
39951;DHT22;25629;51.444;-2.606;2023-03-01T14:48:03;9.80;30.60
39951;DHT22;25629;51.444;-2.606;2023-03-01T14:50:32;9.80;1.00
39951;DHT22;25629;51.444;-2.606;2023-03-01T14:53:04;9.70;1.00
39951;DHT22;25629;51.444;-2.606;2023-03-01T14:55:33;9.60;3.50
39951;DHT22;25629;51.444;-2.606;2023-03-01T14:58:03;9.60;46.30
39951;DHT22;25629;51.444;-2.606;2023-03-01T15:00:31;9.80;25.40
39951;DHT22;25629;51.444;-2.606;2023-03-01T15:03:02;9.90;1.00
39951;DHT22;25629;51.444;-2.606;2023-03-01T15:05:35;9.80;1.00
39951;DHT22;25629;51.444;-2.606;2023-03-01T15:08:03;9.70;1.00
39951;DHT22;25629;51.444;-2.606;2023-03-01T15:10:35;9.70;29.30
39951;DHT22;25629;51.444;-2.606;2023-03-01T15:13:13;9.60;1.00
39951;DHT22;25629;51.444;-2.606;2023-03-01T15:15:43;9.50;57.80
39951;DHT22;25629;51.444;-2.606;2023-03-01T15:20:42;9.50;46.40
39951;DHT22;25629;51.444;-2.606;2023-03-01T15:25:47;9.30;95.50
39951;DHT22;25629;51.444;-2.606;2023-03-01T15:28:26;9.30;99.90
39951;DHT22;25629;51.444;-2.606;2023-03-01T15:31:02;9.30;99.90
39951;DHT22;25629;51.444;-2.606;2023-03-01T15:33:34;9.20;99.90
39951;DHT22;25629;51.444;-2.606;2023-03-01T15:36:03;9.20;99.90
39951;DHT22;25629;51.444;-2.606;2023-03-01T15:38:37;9.20;99.90
39951;DHT22;25629;51.444;-2.606;2023-03-01T15:41:27;9.40;99.90
39951;DHT22;25629;51.444;-2.606;2023-03-01T15:43:57;9.50;99.90
39951;DHT22;25629;51.444;-2.606;2023-03-01T15:46:29;9.60;99.90
39951;DHT22;25629;51.444;-2.606;2023-03-01T15:49:00;9.60;99.90
39951;DHT22;25629;51.444;-2.606;2023-03-01T15:51:36;9.60;99.90
39951;DHT22;25629;51.444;-2.606;2023-03-01T15:54:13;9.40;99.90
39951;DHT22;25629;51.444;-2.606;2023-03-01T15:56:41;9.30;99.90
39951;DHT22;25629;51.444;-2.606;2023-03-01T15:59:10;9.30;99.90
39951;DHT22;25629;51.444;-2.606;2023-03-01T16:01:37;9.30;99.90
39951;DHT22;25629;51.444;-2.606;2023-03-01T16:04:02;9.40;99.90
39951;DHT22;25629;51.444;-2.606;2023-03-01T16:06:28;9.40;99.90
39951;DHT22;25629;51.444;-2.606;2023-03-01T16:08:54;9.40;99.90
39951;DHT22;25629;51.444;-2.606;2023-03-01T16:11:20;9.40;99.90
39951;DHT22;25629;51.444;-2.606;2023-03-01T16:13:46;9.30;99.90
39951;DHT22;25629;51.444;-2.606;2023-03-01T16:16:14;9.30;99.90
39951;DHT22;25629;51.444;-2.606;2023-03-01T16:18:45;9.40;99.90
39951;DHT22;25629;51.444;-2.606;2023-03-01T16:21:13;9.30;99.90
39951;DHT22;25629;51.444;-2.606;2023-03-01T16:23:41;9.20;99.90
39951;DHT22;25629;51.444;-2.606;2023-03-01T16:26:07;9.20;1.00
39951;DHT22;25629;51.444;-2.606;2023-03-01T16:28:33;9.20;1.00
39951;DHT22;25629;51.444;-2.606;2023-03-01T16:30:59;9.10;1.00
39951;DHT22;25629;51.444;-2.606;2023-03-01T16:33:26;9.10;1.00
39951;DHT22;25629;51.444;-2.606;2023-03-01T16:35:52;9.10;1.00
39951;DHT22;25629;51.444;-2.606;2023-03-01T16:38:18;9.00;1.00
39951;DHT22;25629;51.444;-2.606;2023-03-01T16:40:47;9.00;1.00
39951;DHT22;25629;51.444;-2.606;2023-03-01T16:43:13;9.00;99.90
39951;DHT22;25629;51.444;-2.606;2023-03-01T16:45:39;9.00;99.90
39951;DHT22;25629;51.444;-2.606;2023-03-01T16:48:06;9.00;99.90
39951;DHT22;25629;51.444;-2.606;2023-03-01T16:50:32;9.00;99.90
39951;DHT22;25629;51.444;-2.606;2023-03-01T16:52:57;9.10;99.90
39951;DHT22;25629;51.444;-2.606;2023-03-01T16:55:23;9.00;99.90
39951;DHT22;25629;51.444;-2.606;2023-03-01T16:57:49;8.90;99.90
39951;DHT22;25629;51.444;-2.606;2023-03-01T17:00:15;8.90;99.90
39951;DHT22;25629;51.444;-2.606;2023-03-01T17:02:41;8.80;1.00
39951;DHT22;25629;51.444;-2.606;2023-03-01T17:05:08;8.80;99.90
39951;DHT22;25629;51.444;-2.606;2023-03-01T17:07:34;8.80;99.90
39951;DHT22;25629;51.444;-2.606;2023-03-01T17:10:05;8.70;91.90
39951;DHT22;25629;51.444;-2.606;2023-03-01T17:12:33;8.70;99.90
39951;DHT22;25629;51.444;-2.606;2023-03-01T17:14:59;8.80;13.10
39951;DHT22;25629;51.444;-2.606;2023-03-01T17:17:25;8.80;99.90
39951;DHT22;25629;51.444;-2.606;2023-03-01T17:19:51;8.70;1.00
39951;DHT22;25629;51.444;-2.606;2023-03-01T17:22:18;8.70;99.90
39951;DHT22;25629;51.444;-2.606;2023-03-01T17:24:44;8.70;99.90
39951;DHT22;25629;51.444;-2.606;2023-03-01T17:27:11;8.70;99.90
39951;DHT22;25629;51.444;-2.606;2023-03-01T17:29:38;8.60;49.90
39951;DHT22;25629;51.444;-2.606;2023-03-01T17:32:05;8.50;99.90
39951;DHT22;25629;51.444;-2.606;2023-03-01T17:34:31;8.40;99.90
39951;DHT22;25629;51.444;-2.606;2023-03-01T17:36:57;8.40;29.70
39951;DHT22;25629;51.444;-2.606;2023-03-01T17:39:23;8.40;99.90
39951;DHT22;25629;51.444;-2.606;2023-03-01T17:42:01;8.40;99.90
39951;DHT22;25629;51.444;-2.606;2023-03-01T17:44:29;8.30;99.90
39951;DHT22;25629;51.444;-2.606;2023-03-01T17:46:55;8.40;1.00
39951;DHT22;25629;51.444;-2.606;2023-03-01T17:49:20;8.30;1.00
39951;DHT22;25629;51.444;-2.606;2023-03-01T17:51:46;8.40;1.00
39951;DHT22;25629;51.444;-2.606;2023-03-01T17:54:12;8.40;1.00